sensor_id;sensor_type;location;lat;lon;timestamp;P1;durP1;ratioP1;P2;durP2;ratioP2
78183;SDS011;67442;44.570;18.610;2023-05-10T00:02:18;35.03;;;15.48;;
78183;SDS011;67442;44.570;18.610;2023-05-10T00:04:45;33.35;;;16.30;;
78183;SDS011;67442;44.570;18.610;2023-05-10T00:07:12;35.28;;;16.33;;
78183;SDS011;67442;44.570;18.610;2023-05-10T00:09:45;34.17;;;15.65;;
78183;SDS011;67442;44.570;18.610;2023-05-10T00:12:16;35.65;;;15.50;;
78183;SDS011;67442;44.570;18.610;2023-05-10T00:14:47;33.17;;;15.57;;
78183;SDS011;67442;44.570;18.610;2023-05-10T00:17:14;33.22;;;15.63;;
78183;SDS011;67442;44.570;18.610;2023-05-10T00:19:41;30.38;;;14.80;;
78183;SDS011;67442;44.570;18.610;2023-05-10T00:22:08;36.40;;;16.48;;
78183;SDS011;67442;44.570;18.610;2023-05-10T00:24:39;30.98;;;14.90;;
78183;SDS011;67442;44.570;18.610;2023-05-10T00:27:07;36.25;;;15.80;;
78183;SDS011;67442;44.570;18.610;2023-05-10T00:29:34;36.15;;;14.95;;
78183;SDS011;67442;44.570;18.610;2023-05-10T00:32:01;36.15;;;14.60;;
78183;SDS011;67442;44.570;18.610;2023-05-10T00:34:28;30.33;;;14.50;;
78183;SDS011;67442;44.570;18.610;2023-05-10T00:36:56;34.78;;;15.05;;
78183;SDS011;67442;44.570;18.610;2023-05-10T00:39:23;33.00;;;14.38;;
78183;SDS011;67442;44.570;18.610;2023-05-10T00:41:52;28.77;;;14.38;;
78183;SDS011;67442;44.570;18.610;2023-05-10T00:44:19;32.28;;;14.10;;
78183;SDS011;67442;44.570;18.610;2023-05-10T00:46:47;34.67;;;15.52;;
78183;SDS011;67442;44.570;18.610;2023-05-10T00:49:18;31.65;;;13.98;;
78183;SDS011;67442;44.570;18.610;2023-05-10T00:51:50;32.72;;;15.07;;
78183;SDS011;67442;44.570;18.610;2023-05-10T00:54:21;30.77;;;14.13;;
78183;SDS011;67442;44.570;18.610;2023-05-10T00:56:49;29.70;;;14.07;;
78183;SDS011;67442;44.570;18.610;2023-05-10T00:59:16;29.73;;;13.27;;
78183;SDS011;67442;44.570;18.610;2023-05-10T01:01:43;26.13;;;13.55;;
78183;SDS011;67442;44.570;18.610;2023-05-10T01:04:14;28.58;;;14.02;;
78183;SDS011;67442;44.570;18.610;2023-05-10T01:06:41;32.25;;;13.90;;
78183;SDS011;67442;44.570;18.610;2023-05-10T01:09:08;25.08;;;13.05;;
78183;SDS011;67442;44.570;18.610;2023-05-10T01:11:40;28.23;;;13.70;;
78183;SDS011;67442;44.570;18.610;2023-05-10T01:14:07;29.08;;;14.35;;
78183;SDS011;67442;44.570;18.610;2023-05-10T01:16:38;36.15;;;12.55;;
78183;SDS011;67442;44.570;18.610;2023-05-10T01:19:12;31.55;;;13.13;;
78183;SDS011;67442;44.570;18.610;2023-05-10T01:29:48;30.70;;;13.13;;
78183;SDS011;67442;44.570;18.610;2023-05-10T01:35:58;28.60;;;12.80;;
78183;SDS011;67442;44.570;18.610;2023-05-10T01:44:01;26.63;;;13.43;;
78183;SDS011;67442;44.570;18.610;2023-05-10T01:46:38;28.48;;;12.40;;
78183;SDS011;67442;44.570;18.610;2023-05-10T01:49:10;26.35;;;11.55;;
78183;SDS011;67442;44.570;18.610;2023-05-10T01:51:59;25.90;;;13.10;;
78183;SDS011;67442;44.570;18.610;2023-05-10T01:54:54;25.60;;;12.10;;
78183;SDS011;67442;44.570;18.610;2023-05-10T01:57:26;22.58;;;11.35;;
78183;SDS011;67442;44.570;18.610;2023-05-10T01:59:58;23.67;;;11.77;;
78183;SDS011;67442;44.570;18.610;2023-05-10T02:02:28;23.70;;;12.30;;
78183;SDS011;67442;44.570;18.610;2023-05-10T02:04:59;25.10;;;11.90;;
78183;SDS011;67442;44.570;18.610;2023-05-10T02:07:30;22.63;;;11.82;;
78183;SDS011;67442;44.570;18.610;2023-05-10T02:09:59;26.20;;;12.23;;
78183;SDS011;67442;44.570;18.610;2023-05-10T02:12:28;24.95;;;12.25;;
78183;SDS011;67442;44.570;18.610;2023-05-10T02:14:58;23.88;;;11.70;;
78183;SDS011;67442;44.570;18.610;2023-05-10T02:17:27;25.42;;;11.73;;
78183;SDS011;67442;44.570;18.610;2023-05-10T02:19:57;21.95;;;11.77;;
78183;SDS011;67442;44.570;18.610;2023-05-10T02:22:27;23.17;;;10.77;;
78183;SDS011;67442;44.570;18.610;2023-05-10T02:24:57;25.02;;;11.27;;
78183;SDS011;67442;44.570;18.610;2023-05-10T02:27:27;25.48;;;11.57;;
78183;SDS011;67442;44.570;18.610;2023-05-10T02:29:54;22.95;;;10.95;;
78183;SDS011;67442;44.570;18.610;2023-05-10T02:32:27;22.13;;;11.00;;
78183;SDS011;67442;44.570;18.610;2023-05-10T02:34:55;22.85;;;10.52;;
78183;SDS011;67442;44.570;18.610;2023-05-10T02:37:24;23.17;;;11.25;;
78183;SDS011;67442;44.570;18.610;2023-05-10T02:39:53;22.88;;;11.02;;
78183;SDS011;67442;44.570;18.610;2023-05-10T02:42:27;21.70;;;11.00;;
78183;SDS011;67442;44.570;18.610;2023-05-10T02:45:02;24.23;;;11.98;;
78183;SDS011;67442;44.570;18.610;2023-05-10T02:47:34;23.02;;;10.30;;
78183;SDS011;67442;44.570;18.610;2023-05-10T02:50:02;21.23;;;10.68;;
78183;SDS011;67442;44.570;18.610;2023-05-10T02:52:36;20.63;;;10.68;;
78183;SDS011;67442;44.570;18.610;2023-05-10T02:55:32;21.58;;;10.63;;
78183;SDS011;67442;44.570;18.610;2023-05-10T02:58:03;18.83;;;9.82;;
78183;SDS011;67442;44.570;18.610;2023-05-10T03:00:30;20.77;;;9.95;;
78183;SDS011;67442;44.570;18.610;2023-05-10T03:03:01;21.48;;;10.02;;
78183;SDS011;67442;44.570;18.610;2023-05-10T03:05:29;26.42;;;10.60;;
78183;SDS011;67442;44.570;18.610;2023-05-10T03:07:56;24.38;;;10.68;;
78183;SDS011;67442;44.570;18.610;2023-05-10T03:10:26;18.52;;;9.50;;
78183;SDS011;67442;44.570;18.610;2023-05-10T03:18:54;22.25;;;10.30;;
78183;SDS011;67442;44.570;18.610;2023-05-10T03:21:25;18.52;;;9.82;;
78183;SDS011;67442;44.570;18.610;2023-05-10T03:23:59;21.42;;;10.20;;
78183;SDS011;67442;44.570;18.610;2023-05-10T03:26:43;20.85;;;10.25;;
78183;SDS011;67442;44.570;18.610;2023-05-10T03:29:11;19.08;;;9.38;;
78183;SDS011;67442;44.570;18.610;2023-05-10T03:31:40;17.55;;;9.18;;
78183;SDS011;67442;44.570;18.610;2023-05-10T03:34:06;17.65;;;8.82;;
78183;SDS011;67442;44.570;18.610;2023-05-10T03:36:33;18.35;;;9.05;;
78183;SDS011;67442;44.570;18.610;2023-05-10T03:39:01;21.70;;;9.27;;
78183;SDS011;67442;44.570;18.610;2023-05-10T03:41:29;16.83;;;8.88;;
78183;SDS011;67442;44.570;18.610;2023-05-10T03:43:56;17.90;;;8.85;;
78183;SDS011;67442;44.570;18.610;2023-05-10T03:46:23;16.70;;;8.95;;
78183;SDS011;67442;44.570;18.610;2023-05-10T03:48:51;16.10;;;8.93;;
78183;SDS011;67442;44.570;18.610;2023-05-10T03:51:18;17.77;;;8.65;;
78183;SDS011;67442;44.570;18.610;2023-05-10T03:53:50;18.85;;;9.75;;
78183;SDS011;67442;44.570;18.610;2023-05-10T03:56:21;15.88;;;8.57;;
78183;SDS011;67442;44.570;18.610;2023-05-10T03:58:48;17.33;;;8.55;;
78183;SDS011;67442;44.570;18.610;2023-05-10T04:01:15;17.15;;;8.65;;
78183;SDS011;67442;44.570;18.610;2023-05-10T04:03:42;18.27;;;8.45;;
78183;SDS011;67442;44.570;18.610;2023-05-10T04:06:10;16.50;;;8.77;;
78183;SDS011;67442;44.570;18.610;2023-05-10T04:08:37;19.58;;;9.15;;
78183;SDS011;67442;44.570;18.610;2023-05-10T04:11:04;17.20;;;9.18;;
78183;SDS011;67442;44.570;18.610;2023-05-10T04:13:33;19.80;;;7.95;;
78183;SDS011;67442;44.570;18.610;2023-05-10T04:16:00;15.38;;;8.13;;
78183;SDS011;67442;44.570;18.610;2023-05-10T04:18:28;30.75;;;8.20;;
78183;SDS011;67442;44.570;18.610;2023-05-10T04:20:55;15.60;;;7.75;;
78183;SDS011;67442;44.570;18.610;2023-05-10T04:23:22;16.65;;;7.80;;
78183;SDS011;67442;44.570;18.610;2023-05-10T04:25:49;16.80;;;7.88;;
78183;SDS011;67442;44.570;18.610;2023-05-10T04:28:16;16.77;;;7.97;;
78183;SDS011;67442;44.570;18.610;2023-05-10T04:30:43;13.73;;;7.60;;
78183;SDS011;67442;44.570;18.610;2023-05-10T04:33:11;12.98;;;7.22;;
78183;SDS011;67442;44.570;18.610;2023-05-10T04:35:38;16.40;;;7.28;;
78183;SDS011;67442;44.570;18.610;2023-05-10T04:38:05;16.70;;;7.80;;
78183;SDS011;67442;44.570;18.610;2023-05-10T04:40:32;61.85;;;13.25;;
78183;SDS011;67442;44.570;18.610;2023-05-10T04:43:00;231.70;;;39.60;;
78183;SDS011;67442;44.570;18.610;2023-05-10T04:45:27;297.63;;;54.38;;
78183;SDS011;67442;44.570;18.610;2023-05-10T04:47:54;386.02;;;68.22;;
78183;SDS011;67442;44.570;18.610;2023-05-10T04:50:25;367.73;;;71.40;;
78183;SDS011;67442;44.570;18.610;2023-05-10T04:52:56;413.63;;;75.85;;
78183;SDS011;67442;44.570;18.610;2023-05-10T04:55:23;393.05;;;76.07;;
78183;SDS011;67442;44.570;18.610;2023-05-10T04:57:54;385.90;;;73.00;;
78183;SDS011;67442;44.570;18.610;2023-05-10T05:00:22;377.27;;;75.00;;
78183;SDS011;67442;44.570;18.610;2023-05-10T05:02:50;366.75;;;72.15;;
78183;SDS011;67442;44.570;18.610;2023-05-10T05:05:18;378.17;;;70.18;;
78183;SDS011;67442;44.570;18.610;2023-05-10T05:07:45;349.45;;;69.00;;
78183;SDS011;67442;44.570;18.610;2023-05-10T05:10:13;324.50;;;64.53;;
78183;SDS011;67442;44.570;18.610;2023-05-10T05:12:40;319.80;;;66.05;;
78183;SDS011;67442;44.570;18.610;2023-05-10T05:15:11;331.73;;;65.20;;
78183;SDS011;67442;44.570;18.610;2023-05-10T05:17:38;315.20;;;61.83;;
78183;SDS011;67442;44.570;18.610;2023-05-10T05:20:06;320.60;;;63.08;;
78183;SDS011;67442;44.570;18.610;2023-05-10T05:22:35;294.55;;;61.97;;
78183;SDS011;67442;44.570;18.610;2023-05-10T05:25:02;307.98;;;61.22;;
78183;SDS011;67442;44.570;18.610;2023-05-10T05:27:30;298.77;;;60.47;;
78183;SDS011;67442;44.570;18.610;2023-05-10T05:29:57;305.52;;;61.03;;
78183;SDS011;67442;44.570;18.610;2023-05-10T05:32:24;263.98;;;60.25;;
78183;SDS011;67442;44.570;18.610;2023-05-10T05:34:55;249.35;;;59.05;;
78183;SDS011;67442;44.570;18.610;2023-05-10T05:37:22;266.30;;;57.53;;
78183;SDS011;67442;44.570;18.610;2023-05-10T05:39:53;258.90;;;57.90;;
78183;SDS011;67442;44.570;18.610;2023-05-10T05:42:20;260.90;;;58.95;;
78183;SDS011;67442;44.570;18.610;2023-05-10T05:44:51;260.33;;;56.20;;
78183;SDS011;67442;44.570;18.610;2023-05-10T05:47:18;261.23;;;55.92;;
78183;SDS011;67442;44.570;18.610;2023-05-10T05:49:46;229.95;;;54.47;;
78183;SDS011;67442;44.570;18.610;2023-05-10T05:52:17;239.88;;;53.40;;
78183;SDS011;67442;44.570;18.610;2023-05-10T05:54:44;240.70;;;56.58;;
78183;SDS011;67442;44.570;18.610;2023-05-10T05:57:12;218.65;;;52.58;;
78183;SDS011;67442;44.570;18.610;2023-05-10T05:59:38;216.30;;;51.78;;
78183;SDS011;67442;44.570;18.610;2023-05-10T06:02:09;229.07;;;51.35;;
78183;SDS011;67442;44.570;18.610;2023-05-10T06:04:36;217.00;;;51.55;;
78183;SDS011;67442;44.570;18.610;2023-05-10T06:07:03;191.80;;;48.90;;
78183;SDS011;67442;44.570;18.610;2023-05-10T06:09:34;211.20;;;49.05;;
78183;SDS011;67442;44.570;18.610;2023-05-10T06:12:01;194.40;;;49.55;;
78183;SDS011;67442;44.570;18.610;2023-05-10T06:14:29;220.88;;;51.33;;
78183;SDS011;67442;44.570;18.610;2023-05-10T06:16:56;203.05;;;49.90;;
78183;SDS011;67442;44.570;18.610;2023-05-10T06:19:25;198.95;;;49.22;;
78183;SDS011;67442;44.570;18.610;2023-05-10T06:21:52;191.88;;;46.40;;
78183;SDS011;67442;44.570;18.610;2023-05-10T06:24:20;188.95;;;48.70;;
78183;SDS011;67442;44.570;18.610;2023-05-10T06:26:47;202.95;;;47.78;;
78183;SDS011;67442;44.570;18.610;2023-05-10T06:29:15;185.70;;;45.50;;
78183;SDS011;67442;44.570;18.610;2023-05-10T06:31:43;165.18;;;44.28;;
78183;SDS011;67442;44.570;18.610;2023-05-10T06:34:10;202.00;;;44.67;;
78183;SDS011;67442;44.570;18.610;2023-05-10T06:36:37;193.98;;;45.45;;
78183;SDS011;67442;44.570;18.610;2023-05-10T06:39:04;173.48;;;44.38;;
78183;SDS011;67442;44.570;18.610;2023-05-10T06:41:36;187.55;;;45.45;;
78183;SDS011;67442;44.570;18.610;2023-05-10T06:44:03;184.38;;;44.20;;
78183;SDS011;67442;44.570;18.610;2023-05-10T06:46:34;161.82;;;42.25;;
78183;SDS011;67442;44.570;18.610;2023-05-10T06:49:01;167.80;;;44.25;;
78183;SDS011;67442;44.570;18.610;2023-05-10T06:51:28;177.95;;;44.35;;
78183;SDS011;67442;44.570;18.610;2023-05-10T06:54:00;168.32;;;44.15;;
78183;SDS011;67442;44.570;18.610;2023-05-10T06:56:28;173.30;;;42.42;;
78183;SDS011;67442;44.570;18.610;2023-05-10T06:58:59;148.27;;;41.08;;
78183;SDS011;67442;44.570;18.610;2023-05-10T07:01:31;154.30;;;40.92;;
78183;SDS011;67442;44.570;18.610;2023-05-10T07:04:02;141.77;;;41.20;;
78183;SDS011;67442;44.570;18.610;2023-05-10T07:06:29;155.35;;;39.53;;
78183;SDS011;67442;44.570;18.610;2023-05-10T07:08:57;147.82;;;38.63;;
78183;SDS011;67442;44.570;18.610;2023-05-10T07:11:28;153.77;;;41.22;;
78183;SDS011;67442;44.570;18.610;2023-05-10T07:13:55;146.95;;;41.28;;
78183;SDS011;67442;44.570;18.610;2023-05-10T07:16:27;152.63;;;37.58;;
78183;SDS011;67442;44.570;18.610;2023-05-10T07:18:54;153.27;;;40.00;;
78183;SDS011;67442;44.570;18.610;2023-05-10T07:21:25;130.30;;;37.60;;
78183;SDS011;67442;44.570;18.610;2023-05-10T07:23:54;140.18;;;39.10;;
78183;SDS011;67442;44.570;18.610;2023-05-10T07:26:25;144.35;;;39.13;;
78183;SDS011;67442;44.570;18.610;2023-05-10T07:28:52;143.32;;;38.88;;
78183;SDS011;67442;44.570;18.610;2023-05-10T07:31:19;140.65;;;40.45;;
78183;SDS011;67442;44.570;18.610;2023-05-10T07:33:47;144.07;;;38.88;;
78183;SDS011;67442;44.570;18.610;2023-05-10T07:36:14;129.68;;;36.92;;
78183;SDS011;67442;44.570;18.610;2023-05-10T07:38:41;135.32;;;38.05;;
78183;SDS011;67442;44.570;18.610;2023-05-10T07:41:09;138.35;;;38.92;;
78183;SDS011;67442;44.570;18.610;2023-05-10T07:43:40;140.63;;;36.85;;
78183;SDS011;67442;44.570;18.610;2023-05-10T07:46:07;124.65;;;35.38;;
78183;SDS011;67442;44.570;18.610;2023-05-10T07:48:36;133.00;;;36.83;;
78183;SDS011;67442;44.570;18.610;2023-05-10T07:51:07;132.77;;;37.65;;
78183;SDS011;67442;44.570;18.610;2023-05-10T07:53:35;130.38;;;38.40;;
78183;SDS011;67442;44.570;18.610;2023-05-10T07:56:25;119.93;;;35.55;;
78183;SDS011;67442;44.570;18.610;2023-05-10T07:58:55;128.80;;;35.42;;
78183;SDS011;67442;44.570;18.610;2023-05-10T08:01:22;124.45;;;35.25;;
78183;SDS011;67442;44.570;18.610;2023-05-10T08:03:53;126.38;;;36.92;;
78183;SDS011;67442;44.570;18.610;2023-05-10T08:06:25;127.70;;;37.40;;
78183;SDS011;67442;44.570;18.610;2023-05-10T08:08:53;128.38;;;37.55;;
78183;SDS011;67442;44.570;18.610;2023-05-10T08:11:24;121.68;;;36.08;;
78183;SDS011;67442;44.570;18.610;2023-05-10T08:13:55;133.05;;;35.97;;
78183;SDS011;67442;44.570;18.610;2023-05-10T08:16:23;110.00;;;34.85;;
78183;SDS011;67442;44.570;18.610;2023-05-10T08:18:50;119.07;;;36.95;;
78183;SDS011;67442;44.570;18.610;2023-05-10T08:21:17;122.95;;;36.65;;
78183;SDS011;67442;44.570;18.610;2023-05-10T08:23:44;118.40;;;34.75;;
78183;SDS011;67442;44.570;18.610;2023-05-10T08:26:16;127.40;;;35.40;;
78183;SDS011;67442;44.570;18.610;2023-05-10T08:28:44;120.22;;;35.60;;
78183;SDS011;67442;44.570;18.610;2023-05-10T08:31:15;112.45;;;34.15;;
78183;SDS011;67442;44.570;18.610;2023-05-10T08:33:42;114.90;;;34.83;;
78183;SDS011;67442;44.570;18.610;2023-05-10T08:36:12;110.38;;;33.22;;
78183;SDS011;67442;44.570;18.610;2023-05-10T08:38:45;117.75;;;34.00;;
78183;SDS011;67442;44.570;18.610;2023-05-10T08:41:12;113.55;;;35.08;;
78183;SDS011;67442;44.570;18.610;2023-05-10T08:43:40;115.38;;;34.45;;
78183;SDS011;67442;44.570;18.610;2023-05-10T08:46:12;103.13;;;32.83;;
78183;SDS011;67442;44.570;18.610;2023-05-10T08:48:44;112.88;;;32.92;;
78183;SDS011;67442;44.570;18.610;2023-05-10T08:51:19;108.55;;;32.63;;
78183;SDS011;67442;44.570;18.610;2023-05-10T08:53:49;108.70;;;34.15;;
78183;SDS011;67442;44.570;18.610;2023-05-10T08:56:17;104.32;;;34.00;;
78183;SDS011;67442;44.570;18.610;2023-05-10T08:58:45;105.22;;;31.10;;
78183;SDS011;67442;44.570;18.610;2023-05-10T09:01:11;109.03;;;32.50;;
78183;SDS011;67442;44.570;18.610;2023-05-10T09:03:39;104.95;;;32.08;;
78183;SDS011;67442;44.570;18.610;2023-05-10T09:06:06;108.72;;;33.22;;
78183;SDS011;67442;44.570;18.610;2023-05-10T09:08:37;102.90;;;31.15;;
78183;SDS011;67442;44.570;18.610;2023-05-10T09:11:05;109.65;;;32.88;;
78183;SDS011;67442;44.570;18.610;2023-05-10T09:13:32;98.55;;;31.58;;
78183;SDS011;67442;44.570;18.610;2023-05-10T09:15:59;110.13;;;32.92;;
78183;SDS011;67442;44.570;18.610;2023-05-10T09:18:30;98.28;;;32.15;;
78183;SDS011;67442;44.570;18.610;2023-05-10T09:20:57;102.82;;;32.95;;
78183;SDS011;67442;44.570;18.610;2023-05-10T09:23:25;105.53;;;31.80;;
78183;SDS011;67442;44.570;18.610;2023-05-10T09:26:06;93.55;;;30.90;;
78183;SDS011;67442;44.570;18.610;2023-05-10T09:28:53;105.93;;;32.30;;
78183;SDS011;67442;44.570;18.610;2023-05-10T09:31:21;95.40;;;30.23;;
78183;SDS011;67442;44.570;18.610;2023-05-10T09:33:50;105.00;;;32.15;;
78183;SDS011;67442;44.570;18.610;2023-05-10T09:36:17;94.60;;;31.17;;
78183;SDS011;67442;44.570;18.610;2023-05-10T09:38:46;99.10;;;31.20;;
78183;SDS011;67442;44.570;18.610;2023-05-10T09:41:21;92.47;;;30.90;;
78183;SDS011;67442;44.570;18.610;2023-05-10T09:43:49;98.55;;;30.65;;
78183;SDS011;67442;44.570;18.610;2023-05-10T09:46:24;95.63;;;30.02;;
78183;SDS011;67442;44.570;18.610;2023-05-10T09:48:52;91.82;;;30.33;;
78183;SDS011;67442;44.570;18.610;2023-05-10T09:51:20;89.38;;;28.23;;
78183;SDS011;67442;44.570;18.610;2023-05-10T09:53:47;94.18;;;30.58;;
78183;SDS011;67442;44.570;18.610;2023-05-10T09:56:34;91.00;;;29.67;;
78183;SDS011;67442;44.570;18.610;2023-05-10T09:59:10;94.95;;;30.05;;
78183;SDS011;67442;44.570;18.610;2023-05-10T10:01:37;99.95;;;29.83;;
78183;SDS011;67442;44.570;18.610;2023-05-10T10:04:04;97.43;;;30.73;;
78183;SDS011;67442;44.570;18.610;2023-05-10T10:06:36;91.18;;;29.35;;
78183;SDS011;67442;44.570;18.610;2023-05-10T10:09:05;95.72;;;29.05;;
78183;SDS011;67442;44.570;18.610;2023-05-10T10:11:34;90.10;;;30.38;;
78183;SDS011;67442;44.570;18.610;2023-05-10T10:14:02;82.32;;;29.23;;
78183;SDS011;67442;44.570;18.610;2023-05-10T10:16:31;85.75;;;28.48;;
78183;SDS011;67442;44.570;18.610;2023-05-10T10:18:58;87.80;;;29.05;;
78183;SDS011;67442;44.570;18.610;2023-05-10T10:21:25;82.70;;;28.42;;
78183;SDS011;67442;44.570;18.610;2023-05-10T10:23:52;94.28;;;29.08;;
78183;SDS011;67442;44.570;18.610;2023-05-10T10:26:19;79.32;;;28.20;;
78183;SDS011;67442;44.570;18.610;2023-05-10T10:28:58;85.32;;;27.70;;
78183;SDS011;67442;44.570;18.610;2023-05-10T10:34:46;76.93;;;27.02;;
78183;SDS011;67442;44.570;18.610;2023-05-10T10:37:14;80.55;;;27.85;;
78183;SDS011;67442;44.570;18.610;2023-05-10T10:39:40;81.45;;;28.02;;
78183;SDS011;67442;44.570;18.610;2023-05-10T10:42:07;84.72;;;27.38;;
78183;SDS011;67442;44.570;18.610;2023-05-10T10:44:36;84.88;;;28.00;;
78183;SDS011;67442;44.570;18.610;2023-05-10T10:52:25;86.05;;;27.83;;
78183;SDS011;67442;44.570;18.610;2023-05-10T10:55:06;84.07;;;28.38;;
78183;SDS011;67442;44.570;18.610;2023-05-10T10:57:42;85.45;;;27.52;;
78183;SDS011;67442;44.570;18.610;2023-05-10T11:02:57;80.38;;;28.10;;
78183;SDS011;67442;44.570;18.610;2023-05-10T11:08:06;82.97;;;27.85;;
78183;SDS011;67442;44.570;18.610;2023-05-10T11:10:33;74.38;;;26.52;;
78183;SDS011;67442;44.570;18.610;2023-05-10T11:13:01;72.53;;;25.38;;
78183;SDS011;67442;44.570;18.610;2023-05-10T11:15:32;73.32;;;26.83;;
78183;SDS011;67442;44.570;18.610;2023-05-10T11:17:59;81.35;;;27.02;;
78183;SDS011;67442;44.570;18.610;2023-05-10T11:20:42;80.22;;;27.17;;
78183;SDS011;67442;44.570;18.610;2023-05-10T11:23:13;69.30;;;24.95;;
78183;SDS011;67442;44.570;18.610;2023-05-10T11:25:44;75.18;;;27.23;;
78183;SDS011;67442;44.570;18.610;2023-05-10T11:28:18;74.57;;;26.60;;
78183;SDS011;67442;44.570;18.610;2023-05-10T11:30:49;79.47;;;25.70;;
78183;SDS011;67442;44.570;18.610;2023-05-10T11:33:17;79.25;;;27.10;;
78183;SDS011;67442;44.570;18.610;2023-05-10T11:35:48;76.68;;;26.50;;
78183;SDS011;67442;44.570;18.610;2023-05-10T11:38:15;75.43;;;26.38;;
78183;SDS011;67442;44.570;18.610;2023-05-10T11:40:46;71.35;;;25.92;;
78183;SDS011;67442;44.570;18.610;2023-05-10T11:43:17;74.75;;;27.45;;
78183;SDS011;67442;44.570;18.610;2023-05-10T11:45:44;73.82;;;25.90;;
78183;SDS011;67442;44.570;18.610;2023-05-10T11:48:12;68.30;;;25.45;;
78183;SDS011;67442;44.570;18.610;2023-05-10T11:50:44;70.18;;;26.58;;
78183;SDS011;67442;44.570;18.610;2023-05-10T11:53:12;69.82;;;24.17;;
78183;SDS011;67442;44.570;18.610;2023-05-10T11:55:39;76.10;;;26.10;;
78183;SDS011;67442;44.570;18.610;2023-05-10T11:58:10;66.65;;;24.95;;
78183;SDS011;67442;44.570;18.610;2023-05-10T12:00:38;71.18;;;25.20;;
78183;SDS011;67442;44.570;18.610;2023-05-10T12:03:08;71.68;;;25.00;;
78183;SDS011;67442;44.570;18.610;2023-05-10T12:05:36;60.75;;;24.67;;
78183;SDS011;67442;44.570;18.610;2023-05-10T12:08:15;71.30;;;26.17;;
78183;SDS011;67442;44.570;18.610;2023-05-10T12:10:47;70.32;;;26.00;;
78183;SDS011;67442;44.570;18.610;2023-05-10T12:13:14;72.18;;;25.13;;
78183;SDS011;67442;44.570;18.610;2023-05-10T12:15:41;67.78;;;26.70;;
78183;SDS011;67442;44.570;18.610;2023-05-10T12:18:09;69.65;;;24.42;;
78183;SDS011;67442;44.570;18.610;2023-05-10T12:20:37;68.47;;;24.13;;
78183;SDS011;67442;44.570;18.610;2023-05-10T12:23:04;63.72;;;23.23;;
78183;SDS011;67442;44.570;18.610;2023-05-10T12:25:32;71.80;;;24.77;;
78183;SDS011;67442;44.570;18.610;2023-05-10T12:28:02;72.20;;;25.25;;
78183;SDS011;67442;44.570;18.610;2023-05-10T12:30:31;61.75;;;22.65;;
78183;SDS011;67442;44.570;18.610;2023-05-10T12:32:59;60.47;;;22.95;;
78183;SDS011;67442;44.570;18.610;2023-05-10T12:35:47;65.18;;;24.85;;
78183;SDS011;67442;44.570;18.610;2023-05-10T12:38:31;68.88;;;24.63;;
78183;SDS011;67442;44.570;18.610;2023-05-10T12:41:09;58.47;;;22.55;;
78183;SDS011;67442;44.570;18.610;2023-05-10T12:43:38;68.18;;;25.85;;
78183;SDS011;67442;44.570;18.610;2023-05-10T12:46:06;64.13;;;24.08;;
78183;SDS011;67442;44.570;18.610;2023-05-10T12:48:40;62.30;;;24.37;;
78183;SDS011;67442;44.570;18.610;2023-05-10T12:51:08;65.15;;;22.95;;
78183;SDS011;67442;44.570;18.610;2023-05-10T12:53:37;62.55;;;23.60;;
78183;SDS011;67442;44.570;18.610;2023-05-10T12:56:08;63.53;;;23.27;;
78183;SDS011;67442;44.570;18.610;2023-05-10T12:58:35;64.95;;;25.13;;
78183;SDS011;67442;44.570;18.610;2023-05-10T13:01:04;64.68;;;23.10;;
78183;SDS011;67442;44.570;18.610;2023-05-10T13:03:31;63.70;;;23.15;;
78183;SDS011;67442;44.570;18.610;2023-05-10T13:05:58;55.55;;;22.02;;
78183;SDS011;67442;44.570;18.610;2023-05-10T13:08:25;61.25;;;23.23;;
78183;SDS011;67442;44.570;18.610;2023-05-10T13:10:58;56.75;;;22.55;;
78183;SDS011;67442;44.570;18.610;2023-05-10T13:13:25;62.53;;;23.17;;
78183;SDS011;67442;44.570;18.610;2023-05-10T13:15:53;59.90;;;23.40;;
78183;SDS011;67442;44.570;18.610;2023-05-10T13:18:20;67.20;;;24.77;;
78183;SDS011;67442;44.570;18.610;2023-05-10T13:20:46;61.83;;;22.65;;
78183;SDS011;67442;44.570;18.610;2023-05-10T13:23:15;62.50;;;23.55;;
78183;SDS011;67442;44.570;18.610;2023-05-10T13:25:42;58.00;;;22.83;;
78183;SDS011;67442;44.570;18.610;2023-05-10T13:28:10;61.22;;;23.52;;
78183;SDS011;67442;44.570;18.610;2023-05-10T13:30:37;63.65;;;20.90;;
78183;SDS011;67442;44.570;18.610;2023-05-10T13:33:10;57.75;;;21.70;;
78183;SDS011;67442;44.570;18.610;2023-05-10T13:35:38;60.42;;;22.48;;
78183;SDS011;67442;44.570;18.610;2023-05-10T13:38:05;54.65;;;20.67;;
78183;SDS011;67442;44.570;18.610;2023-05-10T13:40:33;55.80;;;22.35;;
78183;SDS011;67442;44.570;18.610;2023-05-10T13:43:01;51.17;;;21.63;;
78183;SDS011;67442;44.570;18.610;2023-05-10T13:45:28;53.20;;;21.80;;
78183;SDS011;67442;44.570;18.610;2023-05-10T13:47:56;57.35;;;21.90;;
78183;SDS011;67442;44.570;18.610;2023-05-10T13:50:23;58.90;;;21.77;;
78183;SDS011;67442;44.570;18.610;2023-05-10T13:52:51;59.15;;;22.98;;
78183;SDS011;67442;44.570;18.610;2023-05-10T13:55:18;54.00;;;21.65;;
78183;SDS011;67442;44.570;18.610;2023-05-10T13:57:45;53.20;;;20.65;;
78183;SDS011;67442;44.570;18.610;2023-05-10T14:00:16;58.28;;;21.40;;
78183;SDS011;67442;44.570;18.610;2023-05-10T14:02:45;60.08;;;22.35;;
78183;SDS011;67442;44.570;18.610;2023-05-10T14:05:12;53.00;;;20.60;;
78183;SDS011;67442;44.570;18.610;2023-05-10T14:07:42;55.05;;;20.40;;
78183;SDS011;67442;44.570;18.610;2023-05-10T14:10:09;53.88;;;21.50;;
78183;SDS011;67442;44.570;18.610;2023-05-10T14:12:37;55.92;;;21.02;;
78183;SDS011;67442;44.570;18.610;2023-05-10T14:15:04;61.58;;;22.15;;
78183;SDS011;67442;44.570;18.610;2023-05-10T14:17:35;55.92;;;20.95;;
78183;SDS011;67442;44.570;18.610;2023-05-10T14:20:02;56.83;;;21.40;;
78183;SDS011;67442;44.570;18.610;2023-05-10T14:22:32;48.38;;;20.33;;
78183;SDS011;67442;44.570;18.610;2023-05-10T14:24:59;50.83;;;20.48;;
78183;SDS011;67442;44.570;18.610;2023-05-10T14:27:27;52.78;;;20.40;;
78183;SDS011;67442;44.570;18.610;2023-05-10T14:29:55;53.53;;;21.85;;
78183;SDS011;67442;44.570;18.610;2023-05-10T14:32:23;51.80;;;20.67;;
78183;SDS011;67442;44.570;18.610;2023-05-10T14:34:55;46.95;;;20.58;;
78183;SDS011;67442;44.570;18.610;2023-05-10T14:37:26;59.30;;;22.05;;
78183;SDS011;67442;44.570;18.610;2023-05-10T14:39:53;53.08;;;21.42;;
78183;SDS011;67442;44.570;18.610;2023-05-10T14:42:24;51.13;;;20.67;;
78183;SDS011;67442;44.570;18.610;2023-05-10T14:44:51;49.50;;;19.65;;
78183;SDS011;67442;44.570;18.610;2023-05-10T14:47:18;48.33;;;19.33;;
78183;SDS011;67442;44.570;18.610;2023-05-10T14:49:46;52.97;;;20.25;;
78183;SDS011;67442;44.570;18.610;2023-05-10T14:52:16;53.58;;;19.80;;
78183;SDS011;67442;44.570;18.610;2023-05-10T14:54:48;56.03;;;20.98;;
78183;SDS011;67442;44.570;18.610;2023-05-10T14:57:19;50.65;;;20.90;;